Station Historical Data
Daily Summary for April 22, 2017 Units:  Metric    English   Both
« Previous Day
Next Day »
Daily Weekly Monthly Yearly Custom
  High: Low: Average:
Temperature: 12.3 °C 3.7 °C 7.2 °C
Dew Point: 4.6 °C 0.9 °C 2.3 °C
Humidity: 84% 47% 72%
Wind Speed: 16.1km/h 0km/h 5.3km/h
Wind Gust: 22.5km/h - -
Wind- - WNW
Pressure: 1020.5 hPa 1015.8 hPa -
Precipitation: 0 mm    
Historical Graphs
 
 
Tabular Data for April 22, 2017
Time Temperature Dew Point Pressure Wind Wind Speed Wind Gust Humidity Rainfall Rate (Hourly)
00:04 7.4 °C 3.4 °C 1016.5 hPa West 8 km/h 16.1 km/h 76% 0 mm
00:09 7.3 °C 3.4 °C 1016.5 hPa West 6.4 km/h 16.1 km/h 76% 0 mm
00:14 7.3 °C 3.4 °C 1016.5 hPa West 8 km/h 14.5 km/h 76% 0 mm
00:19 7.3 °C 3.5 °C 1016.5 hPa West 6.4 km/h 14.5 km/h 77% 0 mm
00:24 7.3 °C 3.5 °C 1016.5 hPa West 4.8 km/h 14.5 km/h 77% 0 mm
00:29 7.2 °C 3.7 °C 1016.8 hPa WSW 3.2 km/h 12.9 km/h 78% 0 mm
00:34 7.2 °C 3.4 °C 1016.8 hPa West 9.7 km/h 16.1 km/h 77% 0 mm
00:39 7.2 °C 3.4 °C 1016.8 hPa West 4.8 km/h 11.3 km/h 77% 0 mm
00:44 7.1 °C 3.3 °C 1016.8 hPa West 6.4 km/h 12.9 km/h 77% 0 mm
00:49 7.1 °C 3.6 °C 1016.8 hPa West 6.4 km/h 12.9 km/h 78% 0 mm
00:54 7.1 °C 3.3 °C 1016.8 hPa WNW 6.4 km/h 16.1 km/h 77% 0 mm
00:59 7 °C 3.4 °C 1016.8 hPa NNW 1.6 km/h 9.7 km/h 78% 0 mm
01:04 6.8 °C 3.3 °C 1016.8 hPa NW 4.8 km/h 12.9 km/h 78% 0 mm
01:09 6.7 °C 3.3 °C 1016.8 hPa WNW 16.1 km/h 16.1 km/h 79% 0 mm
01:14 6.6 °C 3 °C 1016.8 hPa NW 6.4 km/h 16.1 km/h 78% 0 mm
01:19 6.4 °C 2.9 °C 1016.8 hPa NW 8 km/h 16.1 km/h 78% 0 mm
01:24 6.3 °C 2.9 °C 1016.8 hPa NW 6.4 km/h 12.9 km/h 79% 0 mm
01:29 6.2 °C 2.8 °C 1016.8 hPa WNW 9.7 km/h 12.9 km/h 79% 0 mm
01:34 6.2 °C 2.8 °C 1016.5 hPa West 11.3 km/h 14.5 km/h 79% 0 mm
01:39 6.1 °C 2.6 °C 1016.5 hPa West 8 km/h 12.9 km/h 78% 0 mm
01:44 6.1 °C 2.6 °C 1016.5 hPa WNW 8 km/h 19.3 km/h 78% 0 mm
01:49 6.1 °C 2.5 °C 1016.5 hPa West 9.7 km/h 14.5 km/h 78% 0 mm
01:54 6 °C 2.4 °C 1016.5 hPa WNW 6.4 km/h 11.3 km/h 78% 0 mm
01:59 5.9 °C 2.4 °C 1016.5 hPa West 9.7 km/h 12.9 km/h 78% 0 mm
02:04 5.8 °C 2.2 °C 1016.5 hPa WNW 8 km/h 16.1 km/h 78% 0 mm
02:09 5.6 °C 2 °C 1016.5 hPa WNW 11.3 km/h 22.5 km/h 78% 0 mm
02:14 5.4 °C 1.9 °C 1016.5 hPa WNW 8 km/h 22.5 km/h 78% 0 mm
02:19 5.3 °C 1.8 °C 1016.5 hPa WNW 9.7 km/h 22.5 km/h 78% 0 mm
02:24 5.2 °C 1.8 °C 1016.5 hPa WNW 8 km/h 17.7 km/h 79% 0 mm
02:29 4.9 °C 1.6 °C 1016.1 hPa West 6.4 km/h 9.7 km/h 79% 0 mm
02:34 4.9 °C 1.7 °C 1016.1 hPa WNW 4.8 km/h 11.3 km/h 80% 0 mm
02:39 4.8 °C 1.7 °C 1016.1 hPa WNW 4.8 km/h 11.3 km/h 80% 0 mm
02:44 4.8 °C 1.6 °C 1016.1 hPa WNW 4.8 km/h 11.3 km/h 80% 0 mm
02:49 4.7 °C 1.6 °C 1015.8 hPa WNW 4.8 km/h 9.7 km/h 80% 0 mm
02:54 4.6 °C 1.4 °C 1016.1 hPa West 4.8 km/h 9.7 km/h 80% 0 mm
02:59 4.7 °C 1.7 °C 1015.8 hPa West 1.6 km/h 4.8 km/h 81% 0 mm
03:04 4.8 °C 1.8 °C 1015.8 hPa West 3.2 km/h 6.4 km/h 81% 0 mm
03:09 4.9 °C 1.8 °C 1016.1 hPa West 3.2 km/h 11.3 km/h 80% 0 mm
03:14 5.2 °C 2 °C 1016.1 hPa West 4.8 km/h 11.3 km/h 80% 0 mm
03:19 5.3 °C 2.1 °C 1016.1 hPa West 3.2 km/h 11.3 km/h 80% 0 mm
03:24 5.4 °C 2.1 °C 1015.8 hPa West 4.8 km/h 11.3 km/h 79% 0 mm
03:34 5.4 °C 2.1 °C 1015.8 hPa West 4.8 km/h 9.7 km/h 79% 0 mm
03:44 5.5 °C 2.2 °C 1016.1 hPa West 4.8 km/h 11.3 km/h 79% 0 mm
03:49 5.5 °C 2.2 °C 1015.8 hPa West 6.4 km/h 12.9 km/h 79% 0 mm
03:54 5.5 °C 2.2 °C 1016.1 hPa West 6.4 km/h 12.9 km/h 79% 0 mm
03:59 5.5 °C 2.3 °C 1016.1 hPa WNW 6.4 km/h 11.3 km/h 80% 0 mm
04:04 5.4 °C 2.3 °C 1015.8 hPa West 6.4 km/h 12.9 km/h 80% 0 mm
04:09 5.4 °C 2.3 °C 1015.8 hPa West 9.7 km/h 14.5 km/h 80% 0 mm
04:14 5.4 °C 2.3 °C 1016.1 hPa WNW 4.8 km/h 11.3 km/h 80% 0 mm
04:19 5.4 °C 2.3 °C 1016.1 hPa West 4.8 km/h 12.9 km/h 80% 0 mm
04:24 5.4 °C 2.3 °C 1016.1 hPa West 3.2 km/h 12.9 km/h 80% 0 mm
04:34 5.4 °C 2.3 °C 1016.1 hPa West 8 km/h 11.3 km/h 80% 0 mm
04:39 5.4 °C 2.3 °C 1016.1 hPa WNW 6.4 km/h 11.3 km/h 80% 0 mm
04:44 5.4 °C 2.4 °C 1016.1 hPa WNW 4.8 km/h 11.3 km/h 81% 0 mm
04:49 5.4 °C 2.3 °C 1016.1 hPa WNW 4.8 km/h 14.5 km/h 80% 0 mm
04:54 5.4 °C 2.4 °C 1016.1 hPa WNW 6.4 km/h 14.5 km/h 81% 0 mm
04:59 5.4 °C 2.4 °C 1016.1 hPa WNW 1.6 km/h 8 km/h 81% 0 mm
05:04 5.4 °C 2.4 °C 1016.1 hPa WNW 1.6 km/h 9.7 km/h 81% 0 mm
05:09 5.4 °C 2.4 °C 1016.5 hPa West 4.8 km/h 9.7 km/h 81% 0 mm
05:14 5.4 °C 2.4 °C 1016.5 hPa West 4.8 km/h 8 km/h 81% 0 mm
05:19 5.4 °C 2.4 °C 1016.5 hPa WNW 4.8 km/h 9.7 km/h 81% 0 mm
05:24 5.4 °C 2.4 °C 1016.5 hPa WNW 4.8 km/h 12.9 km/h 81% 0 mm
05:34 5.4 °C 2.4 °C 1016.5 hPa West 3.2 km/h 12.9 km/h 81% 0 mm
05:39 5.4 °C 2.4 °C 1016.5 hPa WNW 4.8 km/h 9.7 km/h 81% 0 mm
05:44 5.4 °C 2.4 °C 1016.5 hPa West 4.8 km/h 8 km/h 81% 0 mm
05:49 5.3 °C 2.3 °C 1016.5 hPa WNW 4.8 km/h 9.7 km/h 81% 0 mm
05:54 5.3 °C 2.3 °C 1016.5 hPa WNW 4.8 km/h 9.7 km/h 81% 0 mm
05:59 5.2 °C 2.2 °C 1016.5 hPa WNW 4.8 km/h 12.9 km/h 81% 0 mm
06:04 5.1 °C 2.3 °C 1016.5 hPa NNW 6.4 km/h 11.3 km/h 82% 0 mm
06:09 5.2 °C 2.3 °C 1016.5 hPa WNW 4.8 km/h 11.3 km/h 82% 0 mm
06:14 5.1 °C 2.3 °C 1016.5 hPa WNW 4.8 km/h 11.3 km/h 82% 0 mm
06:19 4.9 °C 2.1 °C 1016.5 hPa West 4.8 km/h 11.3 km/h 82% 0 mm
06:24 4.8 °C 1.9 °C 1016.5 hPa WNW 4.8 km/h 11.3 km/h 82% 0 mm
06:29 4.7 °C 2 °C 1016.5 hPa WNW 4.8 km/h 8 km/h 83% 0 mm
06:34 4.6 °C 1.9 °C 1016.8 hPa West 3.2 km/h 8 km/h 83% 0 mm
06:39 4.5 °C 1.9 °C 1016.8 hPa WNW 3.2 km/h 8 km/h 83% 0 mm
06:44 4.4 °C 1.8 °C 1016.8 hPa WNW 1.6 km/h 6.4 km/h 83% 0 mm
06:49 4.4 °C 2 °C 1016.8 hPa WNW 1.6 km/h 3.2 km/h 84% 0 mm
06:54 4.4 °C 2 °C 1017.2 hPa WNW 3.2 km/h 4.8 km/h 84% 0 mm
06:59 4.5 °C 2.1 °C 1017.2 hPa West 1.6 km/h 4.8 km/h 84% 0 mm
07:04 4.7 °C 2.2 °C 1016.8 hPa West 1.6 km/h 8 km/h 84% 0 mm
07:09 4.9 °C 2.4 °C 1016.8 hPa West 3.2 km/h 8 km/h 84% 0 mm
07:14 5.1 °C 2.6 °C 1016.8 hPa WNW 3.2 km/h 8 km/h 84% 0 mm
07:19 5.2 °C 2.7 °C 1017.2 hPa WNW 3.2 km/h 8 km/h 84% 0 mm
07:24 5.2 °C 2.6 °C 1017.2 hPa WNW 4.8 km/h 9.7 km/h 83% 0 mm
07:29 5.3 °C 2.6 °C 1017.2 hPa WNW 4.8 km/h 9.7 km/h 83% 0 mm
07:34 5.3 °C 2.7 °C 1017.2 hPa WNW 8 km/h 11.3 km/h 83% 0 mm
07:39 5.4 °C 2.7 °C 1017.2 hPa Calm   9.7 km/h 83% 0 mm
07:44 5.4 °C 2.6 °C 1017.2 hPa NW 12.9 km/h 14.5 km/h 82% 0 mm
07:49 5.3 °C 2.1 °C 1017.2 hPa WNW 9.7 km/h 20.9 km/h 80% 0 mm
07:54 5.3 °C 1.9 °C 1017.5 hPa WNW 6.4 km/h 19.3 km/h 79% 0 mm
07:59 5.2 °C 1.7 °C 1017.8 hPa NNW 6.4 km/h 16.1 km/h 78% 0 mm
08:04 5.2 °C 1.7 °C 1017.8 hPa WNW 9.7 km/h 12.9 km/h 78% 0 mm
08:09 5.4 °C 1.8 °C 1017.8 hPa NW 8 km/h 16.1 km/h 78% 0 mm
08:14 5.4 °C 1.7 °C 1017.8 hPa NW 6.4 km/h 16.1 km/h 77% 0 mm
08:19 5.5 °C 1.8 °C 1018.2 hPa NW 6.4 km/h 14.5 km/h 77% 0 mm
08:24 5.7 °C 1.8 °C 1018.2 hPa NW 6.4 km/h 14.5 km/h 76% 0 mm
08:29 5.7 °C 2 °C 1018.2 hPa WNW 6.4 km/h 12.9 km/h 77% 0 mm
08:34 5.8 °C 1.9 °C 1018.2 hPa WNW 1.6 km/h 11.3 km/h 76% 0 mm
08:39 5.7 °C 1.6 °C 1018.2 hPa WNW 6.4 km/h 16.1 km/h 75% 0 mm
08:44 5.7 °C 1.6 °C 1018.2 hPa WNW 6.4 km/h 16.1 km/h 75% 0 mm
08:49 5.8 °C 1.7 °C 1018.2 hPa NW 9.7 km/h 12.9 km/h 75% 0 mm
08:54 5.8 °C 1.9 °C 1018.2 hPa West 9.7 km/h 9.7 km/h 76% 0 mm
08:59 5.8 °C 1.9 °C 1018.2 hPa NNW 3.2 km/h 11.3 km/h 76% 0 mm
09:04 5.7 °C 1.8 °C 1018.2 hPa NW 6.4 km/h 14.5 km/h 76% 0 mm
09:09 5.7 °C 1.6 °C 1018.2 hPa NNW 6.4 km/h 14.5 km/h 75% 0 mm
09:14 5.8 °C 1.7 °C 1018.2 hPa NW 4.8 km/h 12.9 km/h 75% 0 mm
09:19 5.8 °C 1.7 °C 1018.5 hPa NW 6.4 km/h 12.9 km/h 75% 0 mm
09:24 5.8 °C 1.7 °C 1018.5 hPa NW 9.7 km/h 12.9 km/h 75% 0 mm
09:29 5.7 °C 1.6 °C 1018.5 hPa NW 4.8 km/h 12.9 km/h 75% 0 mm
09:34 5.7 °C 1.6 °C 1018.5 hPa NNW 6.4 km/h 12.9 km/h 75% 0 mm
09:39 5.8 °C 1.7 °C 1018.8 hPa NNW 4.8 km/h 9.7 km/h 75% 0 mm
09:44 5.8 °C 1.7 °C 1018.8 hPa WNW 6.4 km/h 11.3 km/h 75% 0 mm
09:49 5.9 °C 1.8 °C 1018.8 hPa NW 4.8 km/h 9.7 km/h 75% 0 mm
09:54 5.9 °C 1.6 °C 1018.8 hPa NNW 6.4 km/h 14.5 km/h 74% 0 mm
09:59 5.8 °C 1.6 °C 1018.8 hPa NW 6.4 km/h 12.9 km/h 74% 0 mm
10:04 5.9 °C 1.8 °C 1018.8 hPa NNW 6.4 km/h 12.9 km/h 75% 0 mm
10:09 6.1 °C 1.9 °C 1018.8 hPa NW 4.8 km/h 11.3 km/h 75% 0 mm
10:14 6.1 °C 2 °C 1018.8 hPa NW 4.8 km/h 11.3 km/h 75% 0 mm
10:19 6.4 °C 2.1 °C 1018.8 hPa NW 4.8 km/h 9.7 km/h 74% 0 mm
10:24 6.5 °C 2.2 °C 1018.8 hPa West 9.7 km/h 12.9 km/h 74% 0 mm
10:29 6.4 °C 2.1 °C 1018.5 hPa WNW 4.8 km/h 12.9 km/h 74% 0 mm
10:34 6.6 °C 2.4 °C 1018.8 hPa NW 6.4 km/h 14.5 km/h 75% 0 mm
10:39 6.6 °C 2.1 °C 1018.8 hPa NW 6.4 km/h 14.5 km/h 73% 0 mm
10:44 6.6 °C 2.2 °C 1018.8 hPa NW 3.2 km/h 14.5 km/h 74% 0 mm
10:49 6.8 °C 2.4 °C 1018.8 hPa NW 4.8 km/h 12.9 km/h 74% 0 mm
10:54 6.9 °C 2.2 °C 1019.2 hPa NW 4.8 km/h 16.1 km/h 72% 0 mm
11:04 6.7 °C 2.2 °C 1019.2 hPa NW 6.4 km/h 14.5 km/h 73% 0 mm
11:09 6.8 °C 2.3 °C 1019.2 hPa North 4.8 km/h 11.3 km/h 73% 0 mm
11:14 6.9 °C 2.4 °C 1019.2 hPa NNW 6.4 km/h 11.3 km/h 73% 0 mm
11:19 6.7 °C 2.2 °C 1019.2 hPa NNW 1.6 km/h 16.1 km/h 73% 0 mm
11:24 6.8 °C 2.4 °C 1018.8 hPa WNW 6.4 km/h 12.9 km/h 74% 0 mm
11:29 6.8 °C 2.3 °C 1018.8 hPa NW 8 km/h 11.3 km/h 73% 0 mm
11:34 6.8 °C 2.3 °C 1018.8 hPa NW 4.8 km/h 12.9 km/h 73% 0 mm
11:39 6.8 °C 2.4 °C 1018.8 hPa NW 6.4 km/h 12.9 km/h 74% 0 mm
11:44 6.9 °C 2.4 °C 1018.8 hPa NNW 6.4 km/h 12.9 km/h 73% 0 mm
11:49 6.9 °C 2.4 °C 1018.8 hPa NW 6.4 km/h 12.9 km/h 73% 0 mm
11:54 6.9 °C 2.2 °C 1018.8 hPa NNW 4.8 km/h 12.9 km/h 72% 0 mm
11:59 6.8 °C 1.9 °C 1018.8 hPa NNW 8 km/h 14.5 km/h 71% 0 mm
12:04 7.2 °C 2.3 °C 1018.8 hPa NNW 6.4 km/h 14.5 km/h 71% 0 mm
12:09 7.3 °C 2.4 °C 1018.8 hPa NNW 8 km/h 12.9 km/h 71% 0 mm
12:14 7.5 °C 2.6 °C 1018.8 hPa NNW 9.7 km/h 11.3 km/h 71% 0 mm
12:19 7.6 °C 2.7 °C 1018.8 hPa NW 3.2 km/h 11.3 km/h 71% 0 mm
12:24 7.4 °C 2.1 °C 1018.8 hPa North 3.2 km/h 12.9 km/h 69% 0 mm
12:29 7.8 °C 2.7 °C 1018.8 hPa NW 3.2 km/h 11.3 km/h 70% 0 mm
12:34 7.8 °C 2.7 °C 1018.8 hPa NW 4.8 km/h 11.3 km/h 70% 0 mm
12:39 8 °C 2.7 °C 1018.8 hPa NNW 4.8 km/h 11.3 km/h 69% 0 mm
12:44 7.9 °C 2.4 °C 1018.8 hPa NNW 6.4 km/h 14.5 km/h 68% 0 mm
12:49 8.3 °C 3.1 °C 1018.8 hPa NNW 6.4 km/h 14.5 km/h 70% 0 mm
12:54 7.9 °C 2.2 °C 1018.8 hPa NNW 4.8 km/h 12.9 km/h 67% 0 mm
12:59 8.2 °C 2.6 °C 1018.8 hPa NW 1.6 km/h 11.3 km/h 68% 0 mm
13:04 8 °C 2.1 °C 1018.8 hPa NNW 6.4 km/h 16.1 km/h 66% 0 mm
13:09 7.9 °C 2.2 °C 1018.8 hPa North 4.8 km/h 16.1 km/h 67% 0 mm
13:14 8.1 °C 2.5 °C 1018.5 hPa NNW 9.7 km/h 11.3 km/h 68% 0 mm
13:19 8.1 °C 2.3 °C 1018.5 hPa WNW 4.8 km/h 16.1 km/h 67% 0 mm
13:24 8.4 °C 2.4 °C 1018.8 hPa NNW 4.8 km/h 12.9 km/h 66% 0 mm
13:29 8.5 °C 2.7 °C 1018.8 hPa WNW 11.3 km/h 12.9 km/h 67% 0 mm
13:34 8.4 °C 2.2 °C 1018.8 hPa NNW 6.4 km/h 12.9 km/h 65% 0 mm
13:39 8.3 °C 2.1 °C 1018.8 hPa NNW 6.4 km/h 17.7 km/h 65% 0 mm
13:44 8.6 °C 3 °C 1018.8 hPa NW 6.4 km/h 14.5 km/h 68% 0 mm
13:49 8.8 °C 2.6 °C 1018.8 hPa WNW 6.4 km/h 11.3 km/h 65% 0 mm
13:54 8.8 °C 2.3 °C 1018.8 hPa NNW 11.3 km/h 19.3 km/h 64% 0 mm
13:59 8.7 °C 2.7 °C 1018.8 hPa NNW 8 km/h 19.3 km/h 66% 0 mm
14:04 9.1 °C 2.9 °C 1018.8 hPa NNW 6.4 km/h 14.5 km/h 65% 0 mm
14:09 9.3 °C 3.1 °C 1019.2 hPa NNW 6.4 km/h 12.9 km/h 65% 0 mm
14:14 9.5 °C 3 °C 1019.2 hPa NW 6.4 km/h 14.5 km/h 64% 0 mm
14:19 9.8 °C 2.8 °C 1019.2 hPa NW 6.4 km/h 14.5 km/h 62% 0 mm
14:24 9.8 °C 3.6 °C 1019.2 hPa North 12.9 km/h 12.9 km/h 65% 0 mm
14:29 10.1 °C 2.9 °C 1019.2 hPa NNW 6.4 km/h 12.9 km/h 61% 0 mm
14:34 9.6 °C 3.3 °C 1019.2 hPa North 6.4 km/h 12.9 km/h 65% 0 mm
14:39 9.6 °C 2.9 °C 1018.8 hPa NNW 4.8 km/h 11.3 km/h 63% 0 mm
14:44 10.6 °C 4 °C 1018.8 hPa NW 6.4 km/h 12.9 km/h 64% 0 mm
14:49 10.3 °C 3.1 °C 1018.8 hPa NNE 9.7 km/h 9.7 km/h 61% 0 mm
14:54 9.9 °C 3.2 °C 1018.8 hPa NNW 6.4 km/h 12.9 km/h 63% 0 mm
14:59 10.4 °C 3 °C 1018.8 hPa NNW 6.4 km/h 16.1 km/h 60% 0 mm
15:04 9.8 °C 2.9 °C 1018.8 hPa NNW 6.4 km/h 16.1 km/h 62% 0 mm
15:09 9.4 °C 2.9 °C 1018.8 hPa NNW 4.8 km/h 12.9 km/h 64% 0 mm
15:14 10.8 °C 3.3 °C 1018.8 hPa NNW 4.8 km/h 14.5 km/h 60% 0 mm
15:19 11.4 °C 3.9 °C 1018.8 hPa NW 6.4 km/h 11.3 km/h 60% 0 mm
15:24 11.1 °C 3.3 °C 1018.8 hPa NNW 6.4 km/h 12.9 km/h 59% 0 mm
15:29 11.7 °C 4.6 °C 1018.8 hPa NNW 6.4 km/h 14.5 km/h 62% 0 mm
15:34 10.8 °C 2.9 °C 1018.8 hPa ENE 4.8 km/h 12.9 km/h 58% 0 mm
15:39 11 °C 3.5 °C 1018.8 hPa Calm   11.3 km/h 60% 0 mm
15:44 11.4 °C 3.2 °C 1019.2 hPa NW 12.9 km/h 20.9 km/h 57% 0 mm
15:49 11.1 °C 3.6 °C 1018.8 hPa West 8 km/h 12.9 km/h 60% 0 mm
15:54 11.6 °C 3.6 °C 1019.2 hPa NNW 8 km/h 16.1 km/h 58% 0 mm
15:59 11.8 °C 3.8 °C 1018.8 hPa NW 6.4 km/h 16.1 km/h 58% 0 mm
16:04 11.8 °C 3 °C 1018.8 hPa NW 6.4 km/h 14.5 km/h 55% 0 mm
16:09 11.8 °C 3.8 °C 1018.8 hPa NNW 4.8 km/h 12.9 km/h 58% 0 mm
16:14 11.9 °C 4.1 °C 1018.8 hPa North 6.4 km/h 14.5 km/h 59% 0 mm
16:19 11.8 °C 2.8 °C 1018.8 hPa NNW 3.2 km/h 17.7 km/h 54% 0 mm
16:24 11.3 °C 2.6 °C 1018.8 hPa NW 6.4 km/h 16.1 km/h 55% 0 mm
16:29 11.7 °C 3.2 °C 1018.8 hPa NNW 8 km/h 19.3 km/h 56% 0 mm
16:34 11.7 °C 2.4 °C 1018.8 hPa North 6.4 km/h 19.3 km/h 53% 0 mm
16:39 11.9 °C 2.9 °C 1018.8 hPa NNW 4.8 km/h 12.9 km/h 54% 0 mm
16:44 12.2 °C 3.4 °C 1018.8 hPa NW 1.6 km/h 8 km/h 55% 0 mm
16:49 11.7 °C 2.4 °C 1018.8 hPa NNE 6.4 km/h 12.9 km/h 53% 0 mm
16:54 11.8 °C 3 °C 1018.5 hPa North 3.2 km/h 11.3 km/h 55% 0 mm
16:59 11.9 °C 2.9 °C 1018.8 hPa North 4.8 km/h 11.3 km/h 54% 0 mm
17:04 12.1 °C 2.5 °C 1018.5 hPa NNW 4.8 km/h 14.5 km/h 52% 0 mm
17:09 12.3 °C 3 °C 1018.5 hPa North 3.2 km/h 11.3 km/h 53% 0 mm
17:14 12.2 °C 2.7 °C 1018.5 hPa NNW 3.2 km/h 12.9 km/h 52% 0 mm
17:19 11.9 °C 1.8 °C 1018.8 hPa NNW 4.8 km/h 8 km/h 50% 0 mm
17:29 11.8 °C 1.4 °C 1018.8 hPa NW 6.4 km/h 17.7 km/h 49% 0 mm
17:34 11.6 °C 0.9 °C 1018.8 hPa NW 4.8 km/h 11.3 km/h 48% 0 mm
17:39 11.4 °C 1.1 °C 1018.8 hPa NNW 4.8 km/h 11.3 km/h 49% 0 mm
17:44 11.5 °C 1.7 °C 1018.8 hPa NNW 6.4 km/h 14.5 km/h 51% 0 mm
17:49 11.7 °C 1.3 °C 1018.8 hPa WNW 3.2 km/h 12.9 km/h 49% 0 mm
17:54 11.8 °C 1.7 °C 1018.8 hPa NNE 4.8 km/h 12.9 km/h 50% 0 mm
17:59 12.1 °C 1.4 °C 1018.8 hPa North 6.4 km/h 12.9 km/h 48% 0 mm
18:04 12.1 °C 1.7 °C 1018.5 hPa NNE 4.8 km/h 11.3 km/h 49% 0 mm
18:09 11.9 °C 1.3 °C 1018.5 hPa NNW 9.7 km/h 11.3 km/h 48% 0 mm
18:14 12 °C 1.9 °C 1018.5 hPa North 6.4 km/h 14.5 km/h 50% 0 mm
18:19 11.9 °C 0.9 °C 1018.5 hPa NNW 6.4 km/h 12.9 km/h 47% 0 mm
18:24 11.9 °C 1.6 °C 1018.5 hPa NNW 6.4 km/h 11.3 km/h 49% 0 mm
18:29 12.1 °C 1.7 °C 1018.5 hPa NNE 4.8 km/h 11.3 km/h 49% 0 mm
18:34 11.9 °C 1.6 °C 1018.5 hPa North 6.4 km/h 16.1 km/h 49% 0 mm
18:39 11.8 °C 1.9 °C 1018.5 hPa North 4.8 km/h 16.1 km/h 51% 0 mm
18:44 11.7 °C 1.6 °C 1018.5 hPa NNW 4.8 km/h 9.7 km/h 50% 0 mm
18:49 10.9 °C 2.7 °C 1018.5 hPa WNW 4.8 km/h 11.3 km/h 57% 0 mm
18:54 10.2 °C 2.8 °C 1018.5 hPa WSW 4.8 km/h 12.9 km/h 60% 0 mm
18:59 9.9 °C 2.8 °C 1018.5 hPa WSW 4.8 km/h 12.9 km/h 61% 0 mm
19:04 9.8 °C 2.8 °C 1018.5 hPa SW 9.7 km/h 12.9 km/h 62% 0 mm
19:09 9.4 °C 2.5 °C 1018.5 hPa WSW 4.8 km/h 12.9 km/h 62% 0 mm
19:14 9.3 °C 2.6 °C 1018.5 hPa West 3.2 km/h 6.4 km/h 63% 0 mm
19:19 9.1 °C 2.4 °C 1018.5 hPa SW 8 km/h 9.7 km/h 63% 0 mm
19:24 8.8 °C 2.4 °C 1018.8 hPa WSW 6.4 km/h 11.3 km/h 64% 0 mm
19:29 8.6 °C 2.6 °C 1018.8 hPa WSW 1.6 km/h 8 km/h 66% 0 mm
19:34 8.4 °C 2.4 °C 1018.8 hPa WSW 4.8 km/h 8 km/h 66% 0 mm
19:39 8.3 °C 2.3 °C 1018.8 hPa WSW 4.8 km/h 9.7 km/h 66% 0 mm
19:44 8.2 °C 2.4 °C 1018.8 hPa WSW 4.8 km/h 11.3 km/h 67% 0 mm
19:49 8 °C 2.2 °C 1018.8 hPa SW 6.4 km/h 11.3 km/h 67% 0 mm
19:54 7.9 °C 2.3 °C 1018.8 hPa SW 6.4 km/h 12.9 km/h 68% 0 mm
19:59 7.7 °C 2.4 °C 1018.8 hPa WSW 8 km/h 9.7 km/h 69% 0 mm
20:04 7.6 °C 2.2 °C 1018.8 hPa SW 6.4 km/h 11.3 km/h 69% 0 mm
20:09 7.4 °C 2.5 °C 1018.8 hPa SW 3.2 km/h 11.3 km/h 71% 0 mm
20:14 7.2 °C 2.3 °C 1018.8 hPa SW 3.2 km/h 8 km/h 71% 0 mm
20:19 7.1 °C 2.4 °C 1018.8 hPa WSW 3.2 km/h 9.7 km/h 72% 0 mm
20:24 7.1 °C 2.4 °C 1018.8 hPa SW 3.2 km/h 8 km/h 72% 0 mm
20:29 7 °C 2.5 °C 1018.8 hPa SW 4.8 km/h 8 km/h 73% 0 mm
20:34 6.9 °C 2.4 °C 1019.2 hPa SW 4.8 km/h 8 km/h 73% 0 mm
20:39 6.9 °C 2.4 °C 1018.8 hPa SW 4.8 km/h 12.9 km/h 73% 0 mm
20:44 6.8 °C 2.3 °C 1019.2 hPa WSW 6.4 km/h 12.9 km/h 73% 0 mm
20:49 6.8 °C 2.3 °C 1019.2 hPa West 3.2 km/h 9.7 km/h 73% 0 mm
20:54 6.7 °C 2.2 °C 1019.2 hPa West 4.8 km/h 9.7 km/h 73% 0 mm
20:59 6.7 °C 2.2 °C 1019.2 hPa WSW 4.8 km/h 9.7 km/h 73% 0 mm
21:04 6.6 °C 2.1 °C 1019.2 hPa WSW 4.8 km/h 9.7 km/h 73% 0 mm
21:09 6.4 °C 1.9 °C 1019.2 hPa WSW 3.2 km/h 6.4 km/h 73% 0 mm
21:14 6.4 °C 1.9 °C 1019.5 hPa West 3.2 km/h 8 km/h 73% 0 mm
21:19 6.5 °C 2 °C 1019.2 hPa WSW 4.8 km/h 8 km/h 73% 0 mm
21:24 6.5 °C 2 °C 1019.5 hPa West 4.8 km/h 8 km/h 73% 0 mm
21:29 6.4 °C 1.9 °C 1019.5 hPa West 3.2 km/h 8 km/h 73% 0 mm
21:34 6.4 °C 1.9 °C 1019.5 hPa West 3.2 km/h 6.4 km/h 73% 0 mm
21:39 6.3 °C 1.8 °C 1019.5 hPa West 4.8 km/h 6.4 km/h 73% 0 mm
21:44 6.3 °C 1.8 °C 1019.5 hPa West 4.8 km/h 4.8 km/h 73% 0 mm
21:49 6.2 °C 1.9 °C 1019.9 hPa West 3.2 km/h 4.8 km/h 74% 0 mm
21:54 6.1 °C 1.8 °C 1019.9 hPa West 3.2 km/h 4.8 km/h 74% 0 mm
21:59 5.9 °C 1.8 °C 1019.5 hPa West 1.6 km/h 4.8 km/h 75% 0 mm
22:04 5.8 °C 1.7 °C 1019.5 hPa West 1.6 km/h 4.8 km/h 75% 0 mm
22:09 5.7 °C 1.8 °C 1019.5 hPa West 1.6 km/h 3.2 km/h 76% 0 mm
22:14 5.6 °C 1.7 °C 1019.5 hPa Calm   3.2 km/h 76% 0 mm
22:19 5.5 °C 1.8 °C 1019.5 hPa Calm     77% 0 mm
22:24 5.4 °C 1.7 °C 1019.5 hPa Calm     77% 0 mm
22:29 5.3 °C 1.6 °C 1019.5 hPa Calm   3.2 km/h 77% 0 mm
22:34 5.2 °C 1.4 °C 1019.9 hPa Calm   3.2 km/h 77% 0 mm
22:39 5 °C 1.5 °C 1019.9 hPa Calm   1.6 km/h 78% 0 mm
22:44 5.1 °C 1.6 °C 1019.9 hPa Calm   3.2 km/h 78% 0 mm
22:49 5.1 °C 1.6 °C 1019.9 hPa Calm   3.2 km/h 78% 0 mm
22:54 5.1 °C 1.6 °C 1019.9 hPa West 1.6 km/h 4.8 km/h 78% 0 mm
22:59 5 °C 1.5 °C 1019.9 hPa Calm   4.8 km/h 78% 0 mm
23:04 4.7 °C 1.4 °C 1019.9 hPa Calm   3.2 km/h 79% 0 mm
23:09 4.3 °C 1.2 °C 1019.9 hPa Calm     80% 0 mm
23:14 4.3 °C 1.3 °C 1019.9 hPa Calm     81% 0 mm
23:19 4.3 °C 1.3 °C 1019.9 hPa Calm   3.2 km/h 81% 0 mm
23:24 4.3 °C 1.3 °C 1020.2 hPa Calm   3.2 km/h 81% 0 mm
23:29 4.4 °C 1.4 °C 1020.2 hPa Calm   3.2 km/h 81% 0 mm
23:34 4.3 °C 1.3 °C 1020.2 hPa Calm     81% 0 mm
23:39 4.2 °C 1.2 °C 1020.2 hPa Calm     81% 0 mm
23:44 4.2 °C 1.4 °C 1020.2 hPa Calm     82% 0 mm
23:49 3.8 °C 1.1 °C 1020.2 hPa Calm     82% 0 mm
23:54 3.7 °C 1.1 °C 1020.5 hPa Calm     83% 0 mm
23:59 3.7 °C 1.2 °C 1020.5 hPa Calm     84% 0 mm
Buffalo, New York, USA
Compliments of Weather Underground - 2.5 mb